createdAt,value
2018-07-14T00:01:31.553Z,16.60
2018-07-14T00:03:59.894Z,16.60
2018-07-14T00:06:28.421Z,16.60
2018-07-14T00:08:56.964Z,16.70
2018-07-14T00:11:25.606Z,16.70
2018-07-14T00:13:56.362Z,16.50
2018-07-14T00:17:54.197Z,16.50
2018-07-14T00:20:22.875Z,16.50
2018-07-14T00:22:51.383Z,16.50
2018-07-14T00:25:24.097Z,16.50
2018-07-14T00:27:52.615Z,16.40
2018-07-14T00:30:21.165Z,16.20
2018-07-14T00:32:49.891Z,16.20
2018-07-14T00:35:18.249Z,16.40
2018-07-14T00:37:46.608Z,16.50
2018-07-14T00:40:29.595Z,16.60
2018-07-14T00:43:06.168Z,16.50
2018-07-14T00:45:37.100Z,16.30
2018-07-14T00:48:05.548Z,16.30
2018-07-14T00:50:33.914Z,16.40
2018-07-14T00:53:02.284Z,16.40
2018-07-14T00:55:30.836Z,16.30
2018-07-14T00:57:59.195Z,16.40
2018-07-14T01:00:28.798Z,16.40
2018-07-14T01:02:57.264Z,16.50
2018-07-14T01:05:25.620Z,16.50
2018-07-14T01:07:54.617Z,16.40
2018-07-14T01:10:22.965Z,16.40
2018-07-14T01:12:51.505Z,16.40
2018-07-14T01:15:31.076Z,16.40
2018-07-14T01:18:18.233Z,16.30
2018-07-14T01:20:47.058Z,16.30
2018-07-14T01:23:15.961Z,16.30
2018-07-14T01:25:44.810Z,16.20
2018-07-14T01:28:13.208Z,16.10
2018-07-14T01:30:41.881Z,16.10
2018-07-14T01:33:10.260Z,16.10
2018-07-14T01:35:38.614Z,16.20
2018-07-14T01:38:11.542Z,16.20
2018-07-14T01:40:44.304Z,16.20
2018-07-14T01:43:16.148Z,16.20
2018-07-14T01:45:44.919Z,16.30
2018-07-14T01:48:17.130Z,16.20
2018-07-14T01:50:46.752Z,16.30
2018-07-14T01:53:15.511Z,16.30
2018-07-14T01:55:43.874Z,16.20
2018-07-14T01:58:12.480Z,16.10
2018-07-14T02:00:41.358Z,16.10
2018-07-14T02:03:09.736Z,16.00
2018-07-14T02:05:38.314Z,16.10
2018-07-14T02:08:07.342Z,16.20
2018-07-14T02:10:35.706Z,16.20
2018-07-14T02:13:04.084Z,16.30
2018-07-14T02:15:32.609Z,16.40
2018-07-14T02:18:01.487Z,16.40
2018-07-14T02:20:29.818Z,16.50
2018-07-14T02:22:58.174Z,16.50
2018-07-14T02:25:28.650Z,16.60
2018-07-14T02:27:57.624Z,16.60
2018-07-14T02:30:26.097Z,16.60
2018-07-14T02:32:54.470Z,16.50
2018-07-14T02:35:23.077Z,16.40
2018-07-14T02:37:51.773Z,16.40
2018-07-14T02:40:20.701Z,16.50
2018-07-14T02:45:17.068Z,16.30
2018-07-14T02:47:46.202Z,16.30
2018-07-14T02:50:14.929Z,16.30
2018-07-14T02:52:43.263Z,16.30
2018-07-14T02:55:11.625Z,16.30
2018-07-14T02:57:39.969Z,16.30
2018-07-14T03:00:08.776Z,16.30
2018-07-14T03:02:37.116Z,16.20
2018-07-14T03:05:06.393Z,16.30
2018-07-14T03:07:36.031Z,16.30
2018-07-14T03:10:04.581Z,16.30
2018-07-14T03:12:32.968Z,16.40
2018-07-14T03:17:29.616Z,16.20
2018-07-14T03:19:58.599Z,16.30
2018-07-14T03:22:27.249Z,16.40
2018-07-14T03:24:55.631Z,16.50
2018-07-14T03:27:24.069Z,16.50
2018-07-14T03:29:52.823Z,16.50
2018-07-14T03:32:21.246Z,16.50
2018-07-14T03:34:49.617Z,16.30
2018-07-14T03:37:18.460Z,16.20
2018-07-14T03:39:49.553Z,16.10
2018-07-14T03:45:32.128Z,16.00
2018-07-14T03:48:00.731Z,15.80
2018-07-14T03:50:29.409Z,15.60
2018-07-14T03:52:59.225Z,15.60
2018-07-14T03:55:27.589Z,15.60
2018-07-14T03:57:56.256Z,15.80
2018-07-14T04:00:24.637Z,16.00
2018-07-14T04:02:53.005Z,16.20
2018-07-14T04:05:21.692Z,16.40
2018-07-14T04:07:50.093Z,16.40
2018-07-14T04:10:18.444Z,16.40
2018-07-14T04:12:47.262Z,16.50
2018-07-14T04:15:15.625Z,16.50
2018-07-14T04:17:44.004Z,16.40
2018-07-14T04:20:13.729Z,16.50
2018-07-14T04:22:42.112Z,16.60
2018-07-14T04:25:10.726Z,16.60
2018-07-14T04:27:39.865Z,16.50
2018-07-14T04:30:08.221Z,16.50
2018-07-14T04:32:36.551Z,16.60
2018-07-14T04:35:05.220Z,16.80
2018-07-14T04:37:33.580Z,17.00
2018-07-14T04:40:01.919Z,17.10
2018-07-14T04:42:30.628Z,17.10
2018-07-14T04:44:58.936Z,17.30
2018-07-14T04:47:27.272Z,17.30
2018-07-14T04:49:55.883Z,17.50
2018-07-14T04:52:25.207Z,17.60
2018-07-14T04:54:54.624Z,17.70
2018-07-14T04:57:23.337Z,18.20
2018-07-14T04:59:51.989Z,19.80
2018-07-14T05:02:20.389Z,21.50
2018-07-14T05:04:49.177Z,22.20
2018-07-14T05:07:17.609Z,22.80
2018-07-14T05:09:48.249Z,23.50
2018-07-14T05:12:17.100Z,23.60
2018-07-14T05:14:45.474Z,23.50
2018-07-14T05:17:14.176Z,23.30
2018-07-14T05:19:43.145Z,23.00
2018-07-14T05:25:41.434Z,21.90
2018-07-14T05:28:09.891Z,21.30
2018-07-14T05:30:38.300Z,21.10
2018-07-14T05:33:07.280Z,20.70
2018-07-14T05:35:40.225Z,20.70
2018-07-14T05:38:11.796Z,20.20
2018-07-14T05:40:46.808Z,20.20
2018-07-14T05:43:17.631Z,20.20
2018-07-14T05:45:50.209Z,19.90
2018-07-14T05:48:19.319Z,19.70
2018-07-14T05:50:48.134Z,19.60
2018-07-14T05:53:16.536Z,19.30
2018-07-14T05:55:45.650Z,19.10
2018-07-14T05:58:14.339Z,19.00
2018-07-14T06:00:42.761Z,19.10
2018-07-14T06:03:11.605Z,19.40
2018-07-14T06:08:08.521Z,20.00
2018-07-14T06:10:40.419Z,20.10
2018-07-14T06:13:09.925Z,20.20
2018-07-14T06:15:38.426Z,20.40
2018-07-14T06:18:08.658Z,20.50
2018-07-14T06:20:38.360Z,20.80
2018-07-14T06:23:07.527Z,21.10
2018-07-14T06:25:37.308Z,21.60
2018-07-14T06:28:05.768Z,23.40
2018-07-14T06:30:34.201Z,25.60
2018-07-14T06:33:03.349Z,26.90
2018-07-14T06:35:31.842Z,28.20
2018-07-14T06:38:00.215Z,27.70
2018-07-14T06:40:29.106Z,28.60
2018-07-14T06:42:57.570Z,27.70
2018-07-14T06:51:15.829Z,24.80
2018-07-14T06:53:46.146Z,24.30
2018-07-14T06:56:23.272Z,23.90
2018-07-14T06:58:52.030Z,24.40
2018-07-14T07:01:20.788Z,23.90
2018-07-14T07:03:49.253Z,23.60
2018-07-14T07:10:54.041Z,24.10
2018-07-14T07:13:22.435Z,27.50
2018-07-14T07:18:19.572Z,30.00
2018-07-14T07:20:47.907Z,31.00
2018-07-14T07:23:16.616Z,31.10
2018-07-14T07:25:45.276Z,33.10
2018-07-14T07:28:30.490Z,33.20
2018-07-14T07:30:59.461Z,33.40
2018-07-14T07:33:28.640Z,31.40
2018-07-14T07:35:58.352Z,28.80
2018-07-14T07:39:06.581Z,28.60
2018-07-14T07:41:42.368Z,28.00
2018-07-14T07:44:13.971Z,29.30
2018-07-14T07:49:54.921Z,32.20
2018-07-14T07:52:24.010Z,31.30
2018-07-14T07:54:55.577Z,31.30
2018-07-14T07:57:58.718Z,30.40
2018-07-14T08:00:27.712Z,28.80
2018-07-14T08:03:03.217Z,27.60
2018-07-14T08:05:40.813Z,27.10
2018-07-14T08:08:29.702Z,26.50
2018-07-14T08:11:07.235Z,26.30
2018-07-14T08:20:04.181Z,26.50
2018-07-14T08:28:29.446Z,26.40
2018-07-14T08:31:13.046Z,26.40
2018-07-14T08:33:51.254Z,26.20
2018-07-14T08:36:26.379Z,26.00
2018-07-14T08:38:56.337Z,25.30
2018-07-14T08:41:26.961Z,25.40
2018-07-14T08:47:42.504Z,26.00
2018-07-14T08:50:24.002Z,25.70
2018-07-14T08:53:09.293Z,25.90
2018-07-14T08:55:45.215Z,25.90
2018-07-14T08:58:29.936Z,25.80
2018-07-14T09:01:02.442Z,25.60
2018-07-14T09:03:55.033Z,25.30
2018-07-14T09:08:53.548Z,25.20
2018-07-14T09:11:22.831Z,25.40
2018-07-14T09:13:51.563Z,25.30
2018-07-14T09:19:39.607Z,25.70
2018-07-14T09:22:21.541Z,26.10
2018-07-14T09:25:07.673Z,26.30
2018-07-14T09:27:58.261Z,26.70
2018-07-14T09:30:28.198Z,26.90
2018-07-14T09:35:54.074Z,26.70
2018-07-14T09:38:37.908Z,26.30
2018-07-14T09:41:08.924Z,26.70
2018-07-14T09:43:38.890Z,26.90
2018-07-14T09:46:07.500Z,27.80
2018-07-14T09:48:36.392Z,28.30
2018-07-14T09:51:05.990Z,28.60
2018-07-14T09:56:02.702Z,27.70
2018-07-14T09:58:31.108Z,27.50
2018-07-14T10:01:07.747Z,27.90
2018-07-14T10:03:40.147Z,28.00
2018-07-14T10:06:13.238Z,28.00
2018-07-14T10:08:41.575Z,28.20
2018-07-14T10:11:12.264Z,28.20
2018-07-14T10:16:29.090Z,29.60
2018-07-14T10:18:57.893Z,29.60
2018-07-14T10:21:26.636Z,29.60
2018-07-14T10:23:55.093Z,28.90
2018-07-14T10:26:23.470Z,27.60
2018-07-14T10:28:52.367Z,27.70
2018-07-14T10:31:20.741Z,28.30
2018-07-14T10:33:49.545Z,29.40
2018-07-14T10:36:19.088Z,29.80
2018-07-14T10:38:47.539Z,29.70
2018-07-14T10:41:16.049Z,28.90
2018-07-14T10:43:44.871Z,27.90
2018-07-14T10:48:41.245Z,29.00
2018-07-14T10:51:10.011Z,28.80
2018-07-14T10:53:38.522Z,28.90
2018-07-14T10:56:06.921Z,27.90
2018-07-14T10:58:37.270Z,28.90
2018-07-14T11:06:04.704Z,27.20
2018-07-14T11:08:40.397Z,27.50
2018-07-14T11:11:13.558Z,27.00
2018-07-14T11:13:44.013Z,27.50
2018-07-14T11:16:18.434Z,28.30
2018-07-14T11:18:51.952Z,27.40
2018-07-14T11:21:21.650Z,28.40
2018-07-14T11:23:51.924Z,29.40
2018-07-14T11:26:20.985Z,28.70
2018-07-14T11:28:50.455Z,27.70
2018-07-14T11:31:18.875Z,28.10
2018-07-14T11:34:18.176Z,27.70
2018-07-14T11:36:47.837Z,27.00
2018-07-14T11:39:16.609Z,26.40
2018-07-14T11:41:45.006Z,25.80
2018-07-14T11:44:13.534Z,26.20
2018-07-14T11:47:01.262Z,26.80
2018-07-14T11:49:31.617Z,27.50
2018-07-14T11:52:06.104Z,27.00
2018-07-14T11:57:31.858Z,26.80
2018-07-14T12:00:02.060Z,27.00
2018-07-14T12:11:48.243Z,27.50
2018-07-14T12:14:20.351Z,27.80
2018-07-14T12:17:12.728Z,28.10
2018-07-14T12:19:41.643Z,27.50
2018-07-14T12:22:12.787Z,27.30
2018-07-14T12:24:42.642Z,27.40
2018-07-14T12:27:11.002Z,27.30
2018-07-14T12:29:39.835Z,27.80
2018-07-14T12:32:08.462Z,27.70
2018-07-14T12:34:36.852Z,27.30
2018-07-14T12:37:05.688Z,27.30
2018-07-14T12:39:54.296Z,27.70
2018-07-14T12:42:23.107Z,27.60
2018-07-14T12:44:52.197Z,27.70
2018-07-14T12:47:20.622Z,27.50
2018-07-14T12:49:50.044Z,27.30
2018-07-14T12:52:18.557Z,27.10
2018-07-14T12:54:53.448Z,27.50
2018-07-14T12:57:25.730Z,27.30
2018-07-14T13:00:01.584Z,27.30
2018-07-14T13:07:27.460Z,27.50
2018-07-14T13:09:58.014Z,27.10
2018-07-14T13:12:51.164Z,27.20
2018-07-14T13:15:24.901Z,27.30
2018-07-14T13:20:23.135Z,27.30
2018-07-14T13:22:51.855Z,27.50
2018-07-14T13:25:21.020Z,27.40
2018-07-14T13:27:49.480Z,27.40
2018-07-14T13:33:22.147Z,27.00
2018-07-14T13:38:21.419Z,26.90
2018-07-14T13:40:51.781Z,26.90
2018-07-14T13:43:24.250Z,26.90
2018-07-14T13:45:52.684Z,27.00
2018-07-14T13:48:21.078Z,26.90
2018-07-14T13:53:57.507Z,26.50
2018-07-14T13:56:26.364Z,27.00
2018-07-14T13:58:54.714Z,27.20
2018-07-14T14:01:23.087Z,27.60
2018-07-14T14:03:56.817Z,27.80
2018-07-14T14:09:34.573Z,28.00
2018-07-14T14:12:04.125Z,28.10
2018-07-14T14:14:32.550Z,28.00
2018-07-14T14:17:02.657Z,28.00
2018-07-14T14:19:31.122Z,28.20
2018-07-14T14:22:00.581Z,28.20
2018-07-14T14:24:29.546Z,28.20
2018-07-14T14:26:58.047Z,28.60
2018-07-14T14:29:26.724Z,28.60
2018-07-14T14:31:56.388Z,27.70
2018-07-14T14:34:25.498Z,27.00
2018-07-14T14:36:53.870Z,27.00
2018-07-14T14:39:23.566Z,26.80
2018-07-14T14:41:56.209Z,26.50
2018-07-14T14:44:27.762Z,26.50
2018-07-14T14:47:16.869Z,26.20
2018-07-14T14:49:46.670Z,26.10
2018-07-14T14:52:16.661Z,25.90
2018-07-14T14:54:45.877Z,25.80
2018-07-14T14:57:17.321Z,25.70
2018-07-14T14:59:46.378Z,25.70
2018-07-14T15:02:15.422Z,25.20
2018-07-14T15:05:07.485Z,25.00
2018-07-14T15:07:36.111Z,24.50
2018-07-14T15:10:04.517Z,24.50
2018-07-14T15:12:33.301Z,24.50
2018-07-14T15:15:02.344Z,24.80
2018-07-14T15:17:31.278Z,25.00
2018-07-14T15:20:04.932Z,25.30
2018-07-14T15:22:33.649Z,25.20
2018-07-14T15:25:03.796Z,25.00
2018-07-14T15:27:32.611Z,24.80
2018-07-14T15:30:01.034Z,25.00
2018-07-14T15:32:29.561Z,25.20
2018-07-14T15:34:59.326Z,25.20
2018-07-14T15:40:05.968Z,24.90
2018-07-14T15:42:36.385Z,24.60
2018-07-14T15:45:10.547Z,24.60
2018-07-14T15:47:47.773Z,24.70
2018-07-14T15:50:40.177Z,24.70
2018-07-14T15:53:10.163Z,24.70
2018-07-14T15:55:38.635Z,24.60
2018-07-14T15:58:10.263Z,24.70
2018-07-14T16:01:02.256Z,24.30
2018-07-14T16:03:30.784Z,24.00
2018-07-14T16:06:23.834Z,24.30
2018-07-14T16:08:54.050Z,24.50
2018-07-14T16:12:10.488Z,24.50
2018-07-14T16:14:39.504Z,24.50
2018-07-14T16:17:08.157Z,24.10
2018-07-14T16:19:40.492Z,23.90
2018-07-14T16:22:09.345Z,23.90
2018-07-14T16:24:37.925Z,24.00
2018-07-14T16:27:06.515Z,24.20
2018-07-14T16:29:35.159Z,24.30
2018-07-14T16:32:04.667Z,24.30
2018-07-14T16:34:33.080Z,24.10
2018-07-14T16:37:01.775Z,23.90
2018-07-14T16:39:30.225Z,23.80
2018-07-14T16:41:59.578Z,23.70
2018-07-14T16:44:30.491Z,23.80
2018-07-14T16:47:06.476Z,23.90
2018-07-14T16:49:37.777Z,23.90
2018-07-14T16:52:10.269Z,24.00
2018-07-14T16:54:38.803Z,24.10
2018-07-14T16:57:07.586Z,24.20
2018-07-14T16:59:35.993Z,24.20
2018-07-14T17:02:04.342Z,24.40
2018-07-14T17:04:33.132Z,24.60
2018-07-14T17:07:01.365Z,24.90
2018-07-14T17:09:29.702Z,24.80
2018-07-14T17:11:58.388Z,24.80
2018-07-14T17:14:30.036Z,24.70
2018-07-14T17:16:58.461Z,24.60
2018-07-14T17:19:28.386Z,24.20
2018-07-14T17:22:00.966Z,24.00
2018-07-14T17:24:29.464Z,24.20
2018-07-14T17:26:58.320Z,24.30
2018-07-14T17:29:26.801Z,24.30
2018-07-14T17:31:55.174Z,24.20
2018-07-14T17:34:23.828Z,24.10
2018-07-14T17:36:52.228Z,23.90
2018-07-14T17:39:20.927Z,23.80
2018-07-14T17:41:51.159Z,24.00
2018-07-14T17:44:19.612Z,23.70
2018-07-14T17:46:49.140Z,23.70
2018-07-14T17:49:18.033Z,23.60
2018-07-14T17:51:46.452Z,23.30
2018-07-14T17:54:14.891Z,23.00
2018-07-14T17:56:45.874Z,22.90
2018-07-14T18:04:11.373Z,23.10
2018-07-14T18:06:39.749Z,22.80
2018-07-14T18:09:08.936Z,22.70
2018-07-14T18:11:39.575Z,22.70
2018-07-14T18:14:08.022Z,22.70
2018-07-14T18:16:37.137Z,22.50
2018-07-14T18:21:34.312Z,22.60
2018-07-14T18:24:03.361Z,22.60
2018-07-14T18:26:32.041Z,22.30
2018-07-14T18:31:28.424Z,22.20
2018-07-14T18:33:58.704Z,22.40
2018-07-14T18:36:34.784Z,22.30
2018-07-14T18:39:04.114Z,21.90
2018-07-14T18:41:32.827Z,21.80
2018-07-14T18:44:01.421Z,22.00
2018-07-14T18:46:30.405Z,22.00
2018-07-14T18:48:58.885Z,21.90
2018-07-14T18:56:25.140Z,21.80
2018-07-14T18:58:54.722Z,21.70
2018-07-14T19:03:52.551Z,21.50
2018-07-14T19:06:21.381Z,21.20
2018-07-14T19:08:50.235Z,21.00
2018-07-14T19:11:18.757Z,20.70
2018-07-14T19:13:54.685Z,20.40
2018-07-14T19:16:24.013Z,20.30
2018-07-14T19:18:52.849Z,20.10
2018-07-14T19:21:21.448Z,19.90
2018-07-14T19:23:53.109Z,19.80
2018-07-14T19:26:23.173Z,19.80
2018-07-14T19:28:51.656Z,20.00
2018-07-14T19:31:21.706Z,20.20
2018-07-14T19:33:50.069Z,20.20
2018-07-14T19:36:18.443Z,20.10
2018-07-14T19:38:47.479Z,19.90
2018-07-14T19:41:16.787Z,19.60
2018-07-14T19:46:18.310Z,19.40
2018-07-14T19:48:46.704Z,19.50
2018-07-14T19:51:16.875Z,19.60
2018-07-14T19:53:45.588Z,19.70
2018-07-14T19:56:14.016Z,19.70
2018-07-14T19:58:42.269Z,19.40
2018-07-14T20:01:10.982Z,19.20
2018-07-14T20:06:07.385Z,18.90
2018-07-14T20:08:36.145Z,19.00
2018-07-14T20:11:04.696Z,19.20
2018-07-14T20:13:33.164Z,19.30
2018-07-14T20:16:01.863Z,19.30
2018-07-14T20:20:58.341Z,19.30
2018-07-14T20:23:28.086Z,19.10
2018-07-14T20:25:57.196Z,19.10
2018-07-14T20:28:25.536Z,19.00
2018-07-14T20:30:55.483Z,18.90
2018-07-14T20:33:24.217Z,19.00
2018-07-14T20:35:52.664Z,18.90
2018-07-14T20:38:21.428Z,18.80
2018-07-14T20:40:49.808Z,18.80
2018-07-14T20:43:18.180Z,18.80
2018-07-14T20:45:47.098Z,18.90
2018-07-14T20:48:15.792Z,18.90
2018-07-14T20:50:44.180Z,19.00
2018-07-14T20:53:12.901Z,18.90
2018-07-14T20:55:41.264Z,18.80
2018-07-14T20:58:09.734Z,18.60
2018-07-14T21:00:38.483Z,18.70
2018-07-14T21:03:06.976Z,18.70
2018-07-14T21:05:35.460Z,18.60
2018-07-14T21:08:08.374Z,18.50
2018-07-14T21:10:36.777Z,18.30
2018-07-14T21:13:05.280Z,18.30
2018-07-14T21:15:34.136Z,18.30
2018-07-14T21:18:02.566Z,18.30
2018-07-14T21:20:30.977Z,18.30
2018-07-14T21:23:01.393Z,18.30
2018-07-14T21:26:59.100Z,18.30
2018-07-14T21:29:27.523Z,18.20
2018-07-14T21:31:55.921Z,18.10
2018-07-14T21:34:24.327Z,18.10
2018-07-14T21:36:53.267Z,18.10
2018-07-14T21:39:23.576Z,18.10
2018-07-14T21:41:51.961Z,18.20
2018-07-14T21:44:20.756Z,18.30
2018-07-14T21:46:49.167Z,18.30
2018-07-14T21:49:18.699Z,18.30
2018-07-14T21:51:49.458Z,18.20
2018-07-14T21:54:17.906Z,18.00
2018-07-14T21:56:46.264Z,18.00
2018-07-14T22:01:48.379Z,17.90
2018-07-14T22:04:16.768Z,18.00
2018-07-14T22:06:45.191Z,18.20
2018-07-14T22:12:29.845Z,18.20
2018-07-14T22:14:59.047Z,18.10
2018-07-14T22:17:27.697Z,17.90
2018-07-14T22:19:56.800Z,17.80
2018-07-14T22:22:25.638Z,17.80
2018-07-14T22:27:24.692Z,17.70
2018-07-14T22:29:55.735Z,17.70
2018-07-14T22:32:25.142Z,17.70
2018-07-14T22:34:53.854Z,17.90
2018-07-14T22:37:23.018Z,17.90
2018-07-14T22:39:51.861Z,17.80
2018-07-14T22:42:20.236Z,17.70
2018-07-14T22:44:48.593Z,17.50
2018-07-14T22:47:17.278Z,17.50
2018-07-14T22:49:45.673Z,17.40
2018-07-14T22:52:20.617Z,17.30
2018-07-14T22:54:49.377Z,17.50
2018-07-14T22:57:17.747Z,17.50
2018-07-14T22:59:52.717Z,17.50
2018-07-14T23:02:24.229Z,17.60
2018-07-14T23:04:52.693Z,17.50
2018-07-14T23:07:21.045Z,17.40
2018-07-14T23:09:49.877Z,17.40
2018-07-14T23:12:18.339Z,17.30
2018-07-14T23:14:46.692Z,17.30
2018-07-14T23:17:15.510Z,17.30
2018-07-14T23:19:43.865Z,17.40
2018-07-14T23:22:12.255Z,17.30
2018-07-14T23:24:40.982Z,17.20
2018-07-14T23:27:09.577Z,17.10
2018-07-14T23:29:38.248Z,17.20
2018-07-14T23:34:35.073Z,17.00
2018-07-14T23:37:03.572Z,16.90
2018-07-14T23:39:32.294Z,16.60
2018-07-14T23:42:00.779Z,16.40
2018-07-14T23:44:29.165Z,16.40
2018-07-14T23:49:26.084Z,16.20
2018-07-14T23:51:54.433Z,16.10
2018-07-14T23:54:23.252Z,16.10
2018-07-14T23:56:52.655Z,15.90
2018-07-14T23:59:21.048Z,15.90
